Time;durP1;ratioP1;P1;durP2;ratioP2;P2;SDS_P1;SDS_P2;PMS_P1;PMS_P2;Temp;Humidity;BMP_temperature;BMP_pressure;BME280_temperature;BME280_humidity;BME280_pressure;Samples;Min_cycle;Max_cycle;Signal;HPM_P1;HPM_P2
2021/10/04 00:02:02;;;;;;;1.25;0.50;;;;;;;;;;4991813;28;20110;-59
2021/10/04 00:04:31;;;;;;;0.40;0.40;;;;;;;;;;4994245;28;20033;-59
2021/10/04 00:06:56;;;;;;;0.47;0.40;;;;;;;;;;4992924;28;20027;-59
2021/10/04 00:09:27;;;;;;;0.70;0.50;;;;;;;;;;4992984;28;20029;-58
2021/10/04 00:11:52;;;;;;;0.65;0.45;;;;;;;;;;4991725;28;20030;-59
2021/10/04 00:14:20;;;;;;;0.30;0.30;;;;;;;;;;4991574;28;20030;-55
2021/10/04 00:16:46;;;;;;;1.85;0.30;;;;;;;;;;4992801;28;20015;-56
2021/10/04 00:19:11;;;;;;;0.40;0.40;;;;;;;;;;4993317;28;20018;-58
2021/10/04 00:21:42;;;;;;;0.60;0.40;;;;;;;;;;4996893;28;20022;-59
2021/10/04 00:24:08;;;;;;;0.75;0.50;;;;;;;;;;4997801;28;20274;-58
2021/10/04 00:26:33;;;;;;;0.52;0.45;;;;;;;;;;4996649;28;20088;-59
2021/10/04 00:29:01;;;;;;;0.60;0.40;;;;;;;;;;4996787;28;20037;-61
2021/10/04 00:31:29;;;;;;;1.05;0.40;;;;;;;;;;5022966;28;20277;-59
2021/10/04 00:33:57;;;;;;;0.60;0.40;;;;;;;;;;4996601;28;20026;-59
2021/10/04 00:36:26;;;;;;;1.13;0.50;;;;;;;;;;4995304;28;20022;-57
2021/10/04 00:38:54;;;;;;;0.40;0.40;;;;;;;;;;4996597;28;20023;-59
2021/10/04 00:41:19;;;;;;;0.50;0.50;;;;;;;;;;4996454;28;20023;-55
2021/10/04 00:43:44;;;;;;;0.60;0.50;;;;;;;;;;4996607;28;20129;-59
2021/10/04 00:46:16;;;;;;;0.57;0.57;;;;;;;;;;4996323;28;20353;-59
2021/10/04 00:48:45;;;;;;;0.80;0.50;;;;;;;;;;4996506;28;20620;-56
2021/10/04 00:51:13;;;;;;;0.57;0.38;;;;;;;;;;4996315;28;20030;-59
2021/10/04 00:53:38;;;;;;;0.90;0.50;;;;;;;;;;4996268;28;20033;-56
2021/10/04 00:56:04;;;;;;;0.53;0.43;;;;;;;;;;4997437;28;20049;-56
2021/10/04 00:58:29;;;;;;;0.68;0.43;;;;;;;;;;5010489;28;20298;-56
2021/10/04 01:00:57;;;;;;;0.50;0.37;;;;;;;;;;4994872;28;20018;-54
2021/10/04 01:03:22;;;;;;;0.43;0.43;;;;;;;;;;5013667;28;20261;-53
2021/10/04 01:05:48;;;;;;;1.53;0.50;;;;;;;;;;5015654;28;20491;-58
2021/10/04 01:08:13;;;;;;;0.40;0.40;;;;;;;;;;5015620;28;20622;-55
2021/10/04 01:10:44;;;;;;;0.47;0.40;;;;;;;;;;5014245;28;20080;-59
2021/10/04 01:13:19;;;;;;;1.40;0.40;;;;;;;;;;5015457;28;20608;-57
2021/10/04 01:15:44;;;;;;;1.23;0.40;;;;;;;;;;5015383;28;20017;-59
2021/10/04 01:18:12;;;;;;;1.30;0.40;;;;;;;;;;5015410;28;20096;-59
2021/10/04 01:20:37;;;;;;;0.50;0.50;;;;;;;;;;5014272;28;20348;-58
2021/10/04 01:23:20;;;;;;;0.40;0.40;;;;;;;;;;5015196;28;20097;-58
2021/10/04 01:25:46;;;;;;;0.55;0.40;;;;;;;;;;5015319;28;20366;-59
2021/10/04 01:28:17;;;;;;;0.65;0.50;;;;;;;;;;5014082;28;20104;-58
2021/10/04 01:30:45;;;;;;;0.40;0.40;;;;;;;;;;5013884;28;20014;-60
2021/10/04 01:33:14;;;;;;;0.98;0.50;;;;;;;;;;5015255;28;20050;-59
2021/10/04 01:35:39;;;;;;;0.95;0.30;;;;;;;;;;5014931;28;20025;-58
2021/10/04 01:38:05;;;;;;;0.50;0.32;;;;;;;;;;5015150;28;20089;-56
2021/10/04 01:40:30;;;;;;;2.80;0.30;;;;;;;;;;5015055;28;20022;-54
2021/10/04 01:42:56;;;;;;;0.50;0.40;;;;;;;;;;5015133;28;20077;-59
2021/10/04 01:45:23;;;;;;;1.75;0.40;;;;;;;;;;5014872;28;20032;-57
2021/10/04 01:47:51;;;;;;;0.40;0.35;;;;;;;;;;5014959;28;20049;-57
2021/10/04 01:50:25;;;;;;;0.50;0.47;;;;;;;;;;5013627;28;20022;-57
2021/10/04 01:52:50;;;;;;;0.40;0.40;;;;;;;;;;5013693;28;20018;-60
2021/10/04 01:55:21;;;;;;;0.60;0.50;;;;;;;;;;5014462;28;20112;-58
2021/10/04 01:57:47;;;;;;;0.45;0.35;;;;;;;;;;5014485;28;20030;-58
2021/10/04 02:00:14;;;;;;;0.55;0.52;;;;;;;;;;4995307;28;20109;-56
2021/10/04 02:02:40;;;;;;;0.40;0.40;;;;;;;;;;5005157;28;20014;-57
2021/10/04 02:05:05;;;;;;;0.70;0.30;;;;;;;;;;5012584;28;20138;-58
2021/10/04 02:07:31;;;;;;;2.67;0.40;;;;;;;;;;5008703;28;20233;-62
2021/10/04 02:09:57;;;;;;;0.40;0.40;;;;;;;;;;4997434;28;20057;-59
2021/10/04 02:12:32;;;;;;;0.73;0.40;;;;;;;;;;4994373;28;20474;-59
2021/10/04 02:14:57;;;;;;;1.20;0.50;;;;;;;;;;4992497;28;20370;-60
2021/10/04 02:17:22;;;;;;;0.40;0.40;;;;;;;;;;5004627;28;20036;-57
2021/10/04 02:19:48;;;;;;;0.70;0.40;;;;;;;;;;5013506;28;20261;-56
2021/10/04 02:22:19;;;;;;;0.73;0.55;;;;;;;;;;5012155;28;20026;-55
2021/10/04 02:24:44;;;;;;;0.32;0.32;;;;;;;;;;5013093;28;20029;-59
2021/10/04 02:27:09;;;;;;;0.50;0.50;;;;;;;;;;5013330;28;20156;-56
2021/10/04 02:29:35;;;;;;;1.87;0.50;;;;;;;;;;4995617;28;20280;-60
2021/10/04 02:32:00;;;;;;;1.13;0.43;;;;;;;;;;5012125;28;20272;-61
2021/10/04 02:34:31;;;;;;;0.40;0.40;;;;;;;;;;5012868;28;20028;-54
2021/10/04 02:36:56;;;;;;;0.43;0.40;;;;;;;;;;5012074;28;20261;-57
2021/10/04 02:39:21;;;;;;;0.37;0.37;;;;;;;;;;5013158;28;20156;-57
2021/10/04 02:41:56;;;;;;;0.60;0.50;;;;;;;;;;5011921;28;20265;-59
2021/10/04 02:44:21;;;;;;;1.08;0.55;;;;;;;;;;5012313;28;20277;-57
2021/10/04 02:46:50;;;;;;;0.50;0.50;;;;;;;;;;5012988;28;20028;-57
2021/10/04 02:49:15;;;;;;;2.67;0.40;;;;;;;;;;5012945;28;20058;-56
2021/10/04 02:51:43;;;;;;;0.70;0.30;;;;;;;;;;5011771;28;20481;-57
2021/10/04 02:54:08;;;;;;;0.40;0.38;;;;;;;;;;5012255;28;20397;-58
2021/10/04 02:56:34;;;;;;;0.63;0.50;;;;;;;;;;5011264;28;20046;-58
2021/10/04 02:58:59;;;;;;;2.67;0.40;;;;;;;;;;5011699;28;20344;-56
2021/10/04 03:01:24;;;;;;;3.33;0.53;;;;;;;;;;5012733;28;20030;-56
2021/10/04 03:03:49;;;;;;;5.38;0.40;;;;;;;;;;5012211;28;20311;-58
2021/10/04 03:06:15;;;;;;;0.30;0.30;;;;;;;;;;4998382;28;20018;-58
2021/10/04 03:08:40;;;;;;;2.70;0.30;;;;;;;;;;5006145;28;20268;-58
2021/10/04 03:11:08;;;;;;;2.15;0.45;;;;;;;;;;4995498;28;20022;-59
2021/10/04 03:13:45;;;;;;;0.63;0.52;;;;;;;;;;5010817;28;20116;-57
2021/10/04 03:16:22;;;;;;;0.90;0.43;;;;;;;;;;4997389;28;20539;-57
2021/10/04 03:18:48;;;;;;;0.45;0.40;;;;;;;;;;4992929;28;20028;-58
2021/10/04 03:21:13;;;;;;;0.40;0.40;;;;;;;;;;4992864;28;20093;-56
2021/10/04 03:23:38;;;;;;;0.80;0.50;;;;;;;;;;4991249;28;20320;-54
2021/10/04 03:26:03;;;;;;;0.87;0.53;;;;;;;;;;4992677;28;20392;-56
2021/10/04 03:28:51;;;;;;;1.63;0.40;;;;;;;;;;5001253;28;20261;-55
2021/10/04 03:31:16;;;;;;;0.75;0.40;;;;;;;;;;5012417;28;20260;-55
2021/10/04 03:33:44;;;;;;;0.50;0.50;;;;;;;;;;4999605;28;20100;-54
2021/10/04 03:36:12;;;;;;;0.80;0.45;;;;;;;;;;5005728;28;20495;-56
2021/10/04 03:38:37;;;;;;;0.45;0.40;;;;;;;;;;5016897;28;20021;-57
2021/10/04 03:41:03;;;;;;;0.57;0.43;;;;;;;;;;4993386;28;20025;-56
2021/10/04 03:43:31;;;;;;;0.63;0.40;;;;;;;;;;4992358;28;20275;-56
2021/10/04 03:45:56;;;;;;;1.10;0.50;;;;;;;;;;5005587;28;20377;-59
2021/10/04 03:48:21;;;;;;;0.90;0.60;;;;;;;;;;4992568;28;20137;-55
2021/10/04 03:50:47;;;;;;;0.77;0.50;;;;;;;;;;4992620;28;20058;-58
2021/10/04 03:53:12;;;;;;;0.57;0.50;;;;;;;;;;4992024;28;20273;-57
2021/10/04 03:55:37;;;;;;;0.50;0.43;;;;;;;;;;4991422;28;20046;-54
2021/10/04 03:58:03;;;;;;;0.65;0.50;;;;;;;;;;4991152;28;20033;-60
2021/10/04 04:00:28;;;;;;;0.60;0.50;;;;;;;;;;4992578;28;20030;-59
2021/10/04 04:02:56;;;;;;;1.85;0.70;;;;;;;;;;4992055;28;20265;-59
2021/10/04 04:05:21;;;;;;;1.77;0.50;;;;;;;;;;5001290;28;20033;-59
2021/10/04 04:07:47;;;;;;;0.60;0.57;;;;;;;;;;5010400;28;20033;-57
2021/10/04 04:10:13;;;;;;;0.57;0.40;;;;;;;;;;5011913;28;20277;-58
2021/10/04 04:12:42;;;;;;;0.40;0.40;;;;;;;;;;5008738;28;20092;-53
2021/10/04 04:15:16;;;;;;;2.47;0.47;;;;;;;;;;4990880;28;20166;-58
2021/10/04 04:17:42;;;;;;;0.40;0.38;;;;;;;;;;5005320;28;20018;-56
2021/10/04 04:20:10;;;;;;;0.50;0.40;;;;;;;;;;4992086;28;20022;-56
2021/10/04 04:22:54;;;;;;;0.40;0.40;;;;;;;;;;4991954;28;20030;-58
2021/10/04 04:25:19;;;;;;;0.50;0.40;;;;;;;;;;4975004;28;20057;-58
2021/10/04 04:27:47;;;;;;;0.63;0.47;;;;;;;;;;4990854;28;20026;-57
2021/10/04 04:30:18;;;;;;;0.95;0.57;;;;;;;;;;4992085;28;20519;-59
2021/10/04 04:32:44;;;;;;;0.40;0.40;;;;;;;;;;4991733;28;20524;-54
2021/10/04 04:35:13;;;;;;;0.30;0.30;;;;;;;;;;4991699;28;20038;-54
2021/10/04 04:37:55;;;;;;;0.35;0.35;;;;;;;;;;4992152;28;20022;-56
2021/10/04 04:40:21;;;;;;;0.63;0.60;;;;;;;;;;4992077;28;20022;-58
2021/10/04 04:42:49;;;;;;;0.38;0.30;;;;;;;;;;4991822;28;20045;-53
2021/10/04 04:45:16;;;;;;;1.80;0.55;;;;;;;;;;4990685;28;20030;-54
2021/10/04 04:47:45;;;;;;;1.90;0.70;;;;;;;;;;4990778;28;20034;-55
2021/10/04 04:50:10;;;;;;;1.48;0.50;;;;;;;;;;4991809;28;20034;-53
2021/10/04 04:52:35;;;;;;;0.60;0.50;;;;;;;;;;4990309;28;20945;-52
2021/10/04 04:55:00;;;;;;;0.40;0.40;;;;;;;;;;4991531;28;20473;-59
2021/10/04 04:57:29;;;;;;;0.55;0.40;;;;;;;;;;5007235;28;20046;-56
2021/10/04 04:59:54;;;;;;;0.50;0.50;;;;;;;;;;5008138;28;20030;-56
2021/10/04 05:02:19;;;;;;;0.73;0.50;;;;;;;;;;5012218;28;20503;-57
2021/10/04 05:04:45;;;;;;;0.90;0.60;;;;;;;;;;5012035;28;20033;-57
2021/10/04 05:07:19;;;;;;;0.70;0.60;;;;;;;;;;5015362;28;20269;-58
2021/10/04 05:09:51;;;;;;;1.42;0.70;;;;;;;;;;5014501;28;20432;-58
2021/10/04 05:12:16;;;;;;;0.70;0.70;;;;;;;;;;5014495;28;20026;-56
2021/10/04 05:14:41;;;;;;;1.40;0.88;;;;;;;;;;5015480;28;20532;-58
2021/10/04 05:17:09;;;;;;;0.60;0.60;;;;;;;;;;5015480;28;20109;-59
2021/10/04 05:19:38;;;;;;;0.65;0.65;;;;;;;;;;5015466;28;20276;-58
2021/10/04 05:22:09;;;;;;;0.57;0.55;;;;;;;;;;5015598;28;20018;-58
2021/10/04 05:24:42;;;;;;;0.70;0.50;;;;;;;;;;5015288;28;20492;-60
2021/10/04 05:27:07;;;;;;;0.68;0.50;;;;;;;;;;5014013;28;20037;-55
2021/10/04 05:29:33;;;;;;;0.60;0.60;;;;;;;;;;5004311;28;20027;-59
2021/10/04 05:31:58;;;;;;;2.58;0.57;;;;;;;;;;5015100;28;20301;-56
2021/10/04 05:34:23;;;;;;;0.53;0.43;;;;;;;;;;5013808;28;20018;-58
2021/10/04 05:36:48;;;;;;;0.40;0.40;;;;;;;;;;5013672;28;20824;-57
2021/10/04 05:39:14;;;;;;;0.47;0.47;;;;;;;;;;5014820;28;20044;-59
2021/10/04 05:41:39;;;;;;;1.65;0.40;;;;;;;;;;5014852;28;20071;-62
2021/10/04 05:44:04;;;;;;;1.00;0.55;;;;;;;;;;5014933;28;20029;-58
2021/10/04 05:46:30;;;;;;;0.60;0.60;;;;;;;;;;4989911;28;20026;-61
2021/10/04 05:48:55;;;;;;;0.82;0.40;;;;;;;;;;5005571;28;20025;-59
2021/10/04 05:51:20;;;;;;;0.50;0.50;;;;;;;;;;5010588;28;20026;-60
2021/10/04 05:53:46;;;;;;;1.13;0.60;;;;;;;;;;5015854;28;20371;-61
2021/10/04 05:56:11;;;;;;;0.50;0.45;;;;;;;;;;5011229;28;20422;-64
2021/10/04 05:58:37;;;;;;;0.80;0.75;;;;;;;;;;5003022;28;20040;-61
2021/10/04 06:01:02;;;;;;;0.60;0.50;;;;;;;;;;5001139;28;20046;-63
2021/10/04 06:03:27;;;;;;;3.65;0.47;;;;;;;;;;5008902;28;20406;-61
2021/10/04 06:05:53;;;;;;;1.05;0.65;;;;;;;;;;5004707;28;20022;-59
2021/10/04 06:08:18;;;;;;;0.40;0.40;;;;;;;;;;5007634;28;20032;-62
2021/10/04 06:10:43;;;;;;;0.68;0.68;;;;;;;;;;5005014;28;20352;-64
2021/10/04 06:13:11;;;;;;;3.33;0.85;;;;;;;;;;5008226;28;20025;-62
2021/10/04 06:15:36;;;;;;;1.05;0.80;;;;;;;;;;5014553;28;20439;-62
2021/10/04 06:18:01;;;;;;;1.45;0.57;;;;;;;;;;5013188;28;20053;-58
2021/10/04 06:20:27;;;;;;;0.70;0.70;;;;;;;;;;5011623;28;20017;-60
2021/10/04 06:22:52;;;;;;;0.70;0.70;;;;;;;;;;5014563;28;20488;-59
2021/10/04 06:25:18;;;;;;;0.98;0.70;;;;;;;;;;5013183;28;20026;-59
2021/10/04 06:27:44;;;;;;;3.05;0.82;;;;;;;;;;5013731;28;20484;-57
2021/10/04 06:30:09;;;;;;;1.33;0.82;;;;;;;;;;5008815;28;20025;-61
2021/10/04 06:32:35;;;;;;;0.85;0.80;;;;;;;;;;5006181;28;20058;-63
2021/10/04 06:35:01;;;;;;;1.85;0.73;;;;;;;;;;5011507;28;20018;-61
2021/10/04 06:37:26;;;;;;;1.77;0.60;;;;;;;;;;5008723;28;20076;-62
2021/10/04 06:39:51;;;;;;;0.67;0.47;;;;;;;;;;5011531;28;20014;-62
2021/10/04 06:42:17;;;;;;;2.07;0.60;;;;;;;;;;5009747;28;20264;-62
2021/10/04 06:44:42;;;;;;;0.82;0.70;;;;;;;;;;5012378;28;20284;-62
2021/10/04 06:47:07;;;;;;;1.33;0.73;;;;;;;;;;5009834;28;20354;-61
2021/10/04 06:49:33;;;;;;;3.38;1.83;;;;;;;;;;5012028;28;20314;-60
2021/10/04 06:51:59;;;;;;;0.70;0.70;;;;;;;;;;5013861;28;20061;-62
2021/10/04 06:54:24;;;;;;;0.60;0.55;;;;;;;;;;5012881;28;20029;-62
2021/10/04 06:56:49;;;;;;;1.80;0.57;;;;;;;;;;4994973;28;20061;-62
2021/10/04 06:59:14;;;;;;;0.63;0.55;;;;;;;;;;5013342;28;20261;-60
2021/10/04 07:01:40;;;;;;;0.70;0.60;;;;;;;;;;5013363;28;20021;-60
2021/10/04 07:04:06;;;;;;;0.75;0.50;;;;;;;;;;5013351;28;20269;-59
2021/10/04 07:06:31;;;;;;;1.45;0.80;;;;;;;;;;4998859;28;20030;-59
2021/10/04 07:08:57;;;;;;;0.70;0.70;;;;;;;;;;4993598;28;20022;-60
2021/10/04 07:11:22;;;;;;;0.80;0.50;;;;;;;;;;4992403;28;20500;-60
2021/10/04 07:13:49;;;;;;;0.90;0.50;;;;;;;;;;4993751;28;20033;-61
2021/10/04 07:16:14;;;;;;;0.68;0.50;;;;;;;;;;4993433;28;20022;-62
2021/10/04 07:18:41;;;;;;;1.13;0.52;;;;;;;;;;4993626;28;20041;-61
2021/10/04 07:21:06;;;;;;;0.77;0.60;;;;;;;;;;4993519;28;20018;-62
2021/10/04 07:23:31;;;;;;;0.52;0.52;;;;;;;;;;4992175;28;20092;-62
2021/10/04 07:25:57;;;;;;;0.70;0.60;;;;;;;;;;4993368;28;20048;-62
2021/10/04 07:28:22;;;;;;;1.05;0.47;;;;;;;;;;4993354;28;20401;-61
2021/10/04 07:30:48;;;;;;;0.63;0.50;;;;;;;;;;4993335;28;20022;-62
2021/10/04 07:33:13;;;;;;;0.82;0.52;;;;;;;;;;4993331;28;20109;-62
2021/10/04 07:35:39;;;;;;;0.73;0.60;;;;;;;;;;4993140;28;20545;-60
2021/10/04 07:38:04;;;;;;;0.55;0.55;;;;;;;;;;5000623;28;20068;-62
2021/10/04 07:40:29;;;;;;;0.70;0.70;;;;;;;;;;5011611;28;20076;-60
2021/10/04 07:42:55;;;;;;;1.15;0.55;;;;;;;;;;5012951;28;20469;-61
2021/10/04 07:45:20;;;;;;;1.83;0.80;;;;;;;;;;5011324;28;20045;-59
2021/10/04 07:47:45;;;;;;;1.27;0.95;;;;;;;;;;5013037;28;20032;-58
2021/10/04 07:50:14;;;;;;;3.78;0.90;;;;;;;;;;5012792;28;20030;-61
2021/10/04 07:52:39;;;;;;;1.15;0.85;;;;;;;;;;4995259;28;20033;-59
2021/10/04 07:55:05;;;;;;;2.50;1.13;;;;;;;;;;5012268;28;20029;-60
2021/10/04 07:57:30;;;;;;;4.65;1.10;;;;;;;;;;5012820;28;20033;-62
2021/10/04 07:59:56;;;;;;;1.40;1.30;;;;;;;;;;5006006;28;20500;-64
2021/10/04 08:02:24;;;;;;;1.98;1.50;;;;;;;;;;5006188;28;20256;-61
2021/10/04 08:04:49;;;;;;;3.75;2.28;;;;;;;;;;5009726;28;20030;-64
2021/10/04 08:07:14;;;;;;;2.00;1.85;;;;;;;;;;4990906;28;20037;-60
2021/10/04 08:09:40;;;;;;;2.53;2.13;;;;;;;;;;5008021;28;20030;-62
2021/10/04 08:12:05;;;;;;;2.40;1.98;;;;;;;;;;5002041;28;20266;-65
2021/10/04 08:14:31;;;;;;;1.48;1.38;;;;;;;;;;5007433;28;20697;-59
2021/10/04 08:17:00;;;;;;;2.97;1.30;;;;;;;;;;5007686;28;20030;-61
2021/10/04 08:19:31;;;;;;;1.70;1.30;;;;;;;;;;4999863;28;20023;-58
2021/10/04 08:21:57;;;;;;;1.55;1.30;;;;;;;;;;5004821;28;20029;-60
2021/10/04 08:24:22;;;;;;;2.72;1.80;;;;;;;;;;5006059;28;20481;-59
2021/10/04 08:26:47;;;;;;;2.83;2.30;;;;;;;;;;5004557;28;20026;-64
2021/10/04 08:29:13;;;;;;;2.33;1.98;;;;;;;;;;4997530;28;20034;-59
2021/10/04 08:31:38;;;;;;;2.35;2.15;;;;;;;;;;5004186;28;20027;-59
2021/10/04 08:34:04;;;;;;;2.13;1.92;;;;;;;;;;4990283;28;20477;-64
2021/10/04 08:36:31;;;;;;;2.28;2.00;;;;;;;;;;4990688;28;20034;-58
2021/10/04 08:38:56;;;;;;;2.33;1.58;;;;;;;;;;4990606;28;20388;-58
2021/10/04 08:41:21;;;;;;;2.88;1.88;;;;;;;;;;4991742;28;20105;-59
2021/10/04 08:43:51;;;;;;;1.88;1.70;;;;;;;;;;5007910;28;20077;-61
2021/10/04 08:46:16;;;;;;;2.30;1.92;;;;;;;;;;5013953;28;20069;-57
2021/10/04 08:48:42;;;;;;;3.13;1.70;;;;;;;;;;5014031;28;20053;-51
2021/10/04 08:51:10;;;;;;;2.00;1.70;;;;;;;;;;5011911;28;20038;-56
2021/10/04 08:53:36;;;;;;;1.85;1.55;;;;;;;;;;5013281;28;20036;-57
2021/10/04 08:56:01;;;;;;;2.03;1.80;;;;;;;;;;4997331;28;20460;-58
2021/10/04 08:58:32;;;;;;;2.50;2.05;;;;;;;;;;5005577;28;20021;-59
2021/10/04 09:01:00;;;;;;;2.83;2.17;;;;;;;;;;5014048;28;20097;-52
2021/10/04 09:03:28;;;;;;;4.68;1.85;;;;;;;;;;5012906;28;20029;-55
2021/10/04 09:05:56;;;;;;;2.65;1.40;;;;;;;;;;4995874;28;20022;-55
2021/10/04 09:08:21;;;;;;;1.88;1.38;;;;;;;;;;4994971;28;20026;-57
2021/10/04 09:10:49;;;;;;;1.27;1.00;;;;;;;;;;5007917;28;20358;-59
2021/10/04 09:13:17;;;;;;;3.00;1.10;;;;;;;;;;4992227;28;20057;-56
2021/10/04 09:15:50;;;;;;;0.93;0.85;;;;;;;;;;4993295;28;20057;-58
2021/10/04 09:18:15;;;;;;;0.65;0.60;;;;;;;;;;5001655;28;20045;-60
2021/10/04 09:20:46;;;;;;;1.17;0.87;;;;;;;;;;4993032;28;20062;-58
2021/10/04 09:23:32;;;;;;;1.83;0.70;;;;;;;;;;4994083;28;20258;-59
2021/10/04 09:25:57;;;;;;;1.15;0.80;;;;;;;;;;4993969;28;20473;-56
2021/10/04 09:28:29;;;;;;;1.25;0.88;;;;;;;;;;5004950;28;20076;-58
2021/10/04 09:31:19;;;;;;;1.02;0.60;;;;;;;;;;5006477;28;20093;-59
2021/10/04 09:34:00;;;;;;;2.10;0.77;;;;;;;;;;4997269;28;20026;-58
2021/10/04 09:36:26;;;;;;;0.50;0.50;;;;;;;;;;5012339;28;20377;-59
2021/10/04 09:39:16;;;;;;;2.65;0.57;;;;;;;;;;4993818;28;20022;-58
2021/10/04 09:42:00;;;;;;;1.38;0.90;;;;;;;;;;5009039;28;20024;-60
2021/10/04 09:44:26;;;;;;;1.30;0.70;;;;;;;;;;5004605;28;20030;-60
2021/10/04 09:46:51;;;;;;;2.13;1.30;;;;;;;;;;5007118;28;20076;-58
2021/10/04 09:49:17;;;;;;;0.90;0.80;;;;;;;;;;5007715;28;20065;-63
2021/10/04 09:51:54;;;;;;;1.48;0.70;;;;;;;;;;4997844;28;20122;-55
2021/10/04 09:54:20;;;;;;;2.35;1.00;;;;;;;;;;5014285;28;20018;-59
2021/10/04 09:56:51;;;;;;;0.80;0.70;;;;;;;;;;5019261;28;20062;-58
2021/10/04 09:59:16;;;;;;;0.82;0.68;;;;;;;;;;5010913;28;20466;-56
2021/10/04 10:01:41;;;;;;;1.13;0.80;;;;;;;;;;5003817;28;20060;-59
2021/10/04 10:04:07;;;;;;;0.93;0.73;;;;;;;;;;5011663;28;20054;-56
2021/10/04 10:06:32;;;;;;;0.70;0.65;;;;;;;;;;4997983;28;20463;-55
2021/10/04 10:09:04;;;;;;;1.48;0.70;;;;;;;;;;5011897;28;20097;-58
2021/10/04 10:11:32;;;;;;;1.77;0.77;;;;;;;;;;5011944;28;20026;-59
2021/10/04 10:13:57;;;;;;;0.88;0.60;;;;;;;;;;5016279;28;20411;-61
2021/10/04 10:16:27;;;;;;;0.88;0.70;;;;;;;;;;4996376;28;20022;-63
2021/10/04 10:18:53;;;;;;;1.85;0.75;;;;;;;;;;5004661;28;20028;-59
2021/10/04 10:21:20;;;;;;;0.60;0.60;;;;;;;;;;5003412;28;20101;-59
2021/10/04 10:23:51;;;;;;;0.95;0.63;;;;;;;;;;5004155;28;20026;-59
2021/10/04 10:26:37;;;;;;;0.80;0.70;;;;;;;;;;5008137;28;20027;-62
2021/10/04 10:29:08;;;;;;;0.93;0.52;;;;;;;;;;5006287;28;20027;-62
2021/10/04 10:32:05;;;;;;;0.50;0.50;;;;;;;;;;5016713;28;20411;-62
2021/10/04 10:34:31;;;;;;;0.50;0.47;;;;;;;;;;4995097;28;20038;-62
2021/10/04 10:37:01;;;;;;;0.95;0.52;;;;;;;;;;5010449;28;20018;-62
2021/10/04 10:39:30;;;;;;;0.90;0.50;;;;;;;;;;5013503;28;20076;-62
2021/10/04 10:42:09;;;;;;;2.47;0.40;;;;;;;;;;5009536;28;20076;-63
2021/10/04 10:44:34;;;;;;;1.38;0.47;;;;;;;;;;5013113;28;20080;-63
2021/10/04 10:47:01;;;;;;;0.30;0.30;;;;;;;;;;5011316;28;20014;-63
2021/10/04 10:49:47;;;;;;;0.50;0.50;;;;;;;;;;5016320;28;20299;-61
2021/10/04 10:52:16;;;;;;;1.00;0.40;;;;;;;;;;4989512;28;20444;-63
2021/10/04 10:54:41;;;;;;;2.25;0.70;;;;;;;;;;5018331;28;20191;-63
2021/10/04 10:57:06;;;;;;;0.30;0.30;;;;;;;;;;5017265;28;20121;-62
2021/10/04 10:59:32;;;;;;;0.50;0.50;;;;;;;;;;4995638;28;20022;-63
2021/10/04 11:01:57;;;;;;;1.08;0.50;;;;;;;;;;5011004;28;20315;-64
2021/10/04 11:04:38;;;;;;;1.37;0.50;;;;;;;;;;5016041;28;20034;-61
2021/10/04 11:07:06;;;;;;;0.43;0.43;;;;;;;;;;4993820;28;20273;-63
2021/10/04 11:09:50;;;;;;;1.33;0.60;;;;;;;;;;4994859;28;20021;-64
2021/10/04 11:12:15;;;;;;;0.50;0.50;;;;;;;;;;5012099;28;20022;-63
2021/10/04 11:14:55;;;;;;;0.47;0.47;;;;;;;;;;5012964;28;20492;-63
2021/10/04 11:17:20;;;;;;;0.50;0.43;;;;;;;;;;5012028;28;20264;-61
2021/10/04 11:19:45;;;;;;;0.90;0.60;;;;;;;;;;5013121;28;20021;-63
2021/10/04 11:22:18;;;;;;;0.43;0.40;;;;;;;;;;5013352;28;20311;-63
2021/10/04 11:24:43;;;;;;;1.25;0.47;;;;;;;;;;5012923;28;20045;-60
2021/10/04 11:27:08;;;;;;;0.93;0.50;;;;;;;;;;5012771;28;20050;-62
2021/10/04 11:29:35;;;;;;;0.60;0.57;;;;;;;;;;5011662;28;20269;-59
2021/10/04 11:32:10;;;;;;;0.45;0.45;;;;;;;;;;5012998;28;20018;-62
2021/10/04 11:34:35;;;;;;;0.80;0.50;;;;;;;;;;5003493;28;20485;-62
2021/10/04 11:37:02;;;;;;;0.63;0.50;;;;;;;;;;4999217;28;20045;-61
2021/10/04 11:39:31;;;;;;;0.63;0.63;;;;;;;;;;4992044;28;20389;-63
2021/10/04 11:42:03;;;;;;;1.17;0.70;;;;;;;;;;4992992;28;20022;-63
2021/10/04 11:44:29;;;;;;;0.57;0.47;;;;;;;;;;5009458;28;20044;-62
2021/10/04 11:46:59;;;;;;;0.88;0.60;;;;;;;;;;5016005;28;20030;-62
2021/10/04 11:49:34;;;;;;;0.68;0.50;;;;;;;;;;5012700;28;20025;-63
2021/10/04 11:52:03;;;;;;;0.50;0.50;;;;;;;;;;5010084;28;20021;-65
2021/10/04 11:54:35;;;;;;;1.20;0.50;;;;;;;;;;4995973;28;20022;-62
2021/10/04 11:57:01;;;;;;;0.40;0.40;;;;;;;;;;5016643;28;20516;-63
2021/10/04 11:59:27;;;;;;;0.40;0.40;;;;;;;;;;4990437;28;20366;-60
2021/10/04 12:01:52;;;;;;;0.45;0.40;;;;;;;;;;4991434;28;20018;-62
2021/10/04 12:04:19;;;;;;;0.40;0.40;;;;;;;;;;4993753;28;20395;-66
2021/10/04 12:06:44;;;;;;;0.93;0.40;;;;;;;;;;4992247;28;20477;-62
2021/10/04 12:09:25;;;;;;;0.80;0.50;;;;;;;;;;4994261;28;20025;-65
2021/10/04 12:11:54;;;;;;;0.82;0.47;;;;;;;;;;5021065;28;20313;-63
2021/10/04 12:14:21;;;;;;;2.25;0.70;;;;;;;;;;5021122;28;20025;-63
2021/10/04 12:16:46;;;;;;;0.63;0.63;;;;;;;;;;4994910;28;20069;-62
2021/10/04 12:19:18;;;;;;;0.80;0.50;;;;;;;;;;4995189;28;20023;-62
2021/10/04 12:22:04;;;;;;;0.40;0.40;;;;;;;;;;5014866;28;20093;-62
2021/10/04 12:24:39;;;;;;;0.40;0.40;;;;;;;;;;5011930;28;20454;-62
2021/10/04 12:27:18;;;;;;;0.52;0.50;;;;;;;;;;5013490;28;20025;-60
2021/10/04 12:29:46;;;;;;;0.50;0.40;;;;;;;;;;5018551;28;20019;-64
2021/10/04 12:32:16;;;;;;;1.20;0.43;;;;;;;;;;5009627;28;20050;-62
2021/10/04 12:34:54;;;;;;;1.00;0.43;;;;;;;;;;5012762;28;20026;-62
2021/10/04 12:37:23;;;;;;;0.50;0.50;;;;;;;;;;5016471;28;20026;-61
2021/10/04 12:39:49;;;;;;;0.82;0.50;;;;;;;;;;5013279;28;20030;-63
2021/10/04 12:42:17;;;;;;;0.43;0.40;;;;;;;;;;5015074;28;20021;-63
2021/10/04 12:44:44;;;;;;;1.80;0.40;;;;;;;;;;5015357;28;20272;-62
2021/10/04 12:47:13;;;;;;;0.50;0.50;;;;;;;;;;5014703;28;20014;-62
2021/10/04 12:49:51;;;;;;;0.50;0.50;;;;;;;;;;5015122;28;20076;-62
2021/10/04 12:52:22;;;;;;;1.17;0.63;;;;;;;;;;5012642;28;20362;-62
2021/10/04 12:54:48;;;;;;;1.13;0.50;;;;;;;;;;5015509;28;20136;-62
2021/10/04 12:57:21;;;;;;;1.08;0.60;;;;;;;;;;5015993;28;20034;-61
2021/10/04 12:59:54;;;;;;;0.50;0.50;;;;;;;;;;5011283;28;20431;-61
2021/10/04 13:02:25;;;;;;;1.10;0.70;;;;;;;;;;5015840;28;20034;-62
2021/10/04 13:04:50;;;;;;;0.65;0.65;;;;;;;;;;5014518;28;20519;-62
2021/10/04 13:07:16;;;;;;;0.77;0.60;;;;;;;;;;5014231;28;20057;-61
2021/10/04 13:09:42;;;;;;;0.57;0.57;;;;;;;;;;5014839;28;20057;-63
2021/10/04 13:12:12;;;;;;;1.40;0.80;;;;;;;;;;5012856;28;20052;-63
2021/10/04 13:14:38;;;;;;;1.55;0.80;;;;;;;;;;5012187;28;20030;-60
2021/10/04 13:17:03;;;;;;;1.00;0.70;;;;;;;;;;4994511;28;20019;-63
2021/10/04 13:19:31;;;;;;;0.90;0.60;;;;;;;;;;4995670;28;20023;-63
2021/10/04 13:21:56;;;;;;;1.30;0.77;;;;;;;;;;4994323;28;20034;-63
2021/10/04 13:24:21;;;;;;;0.60;0.60;;;;;;;;;;4995751;28;20393;-63
2021/10/04 13:26:53;;;;;;;1.77;0.70;;;;;;;;;;4994039;28;20029;-63
2021/10/04 13:29:30;;;;;;;2.30;0.80;;;;;;;;;;4995562;28;20501;-62
2021/10/04 13:32:03;;;;;;;1.33;0.90;;;;;;;;;;4995514;28;20126;-63
2021/10/04 13:34:28;;;;;;;0.80;0.70;;;;;;;;;;4995782;28;20030;-59
2021/10/04 13:37:00;;;;;;;1.53;0.90;;;;;;;;;;4995268;28;20026;-63
2021/10/04 13:39:31;;;;;;;1.13;0.77;;;;;;;;;;4994074;28;20262;-64
2021/10/04 13:41:57;;;;;;;1.15;1.00;;;;;;;;;;4994033;28;20045;-63
2021/10/04 13:44:22;;;;;;;1.20;0.80;;;;;;;;;;4994405;28;20026;-60
2021/10/04 13:46:50;;;;;;;1.55;1.17;;;;;;;;;;4994891;28;20113;-63
2021/10/04 13:49:15;;;;;;;1.00;0.90;;;;;;;;;;4995478;28;20030;-63
2021/10/04 13:51:43;;;;;;;1.27;1.17;;;;;;;;;;4994001;28;20049;-63
2021/10/04 13:54:11;;;;;;;1.40;0.98;;;;;;;;;;4995048;28;20053;-63
2021/10/04 13:56:37;;;;;;;1.73;1.10;;;;;;;;;;4994094;28;20042;-64
2021/10/04 13:59:02;;;;;;;2.40;1.03;;;;;;;;;;4994132;28;20428;-63
2021/10/04 14:01:27;;;;;;;1.53;1.10;;;;;;;;;;4993767;28;20270;-63
2021/10/04 14:03:52;;;;;;;1.30;1.20;;;;;;;;;;4993983;28;20301;-63
2021/10/04 14:06:18;;;;;;;1.20;1.10;;;;;;;;;;4993785;28;20257;-64
2021/10/04 14:08:47;;;;;;;1.23;1.13;;;;;;;;;;4997562;28;20273;-65
2021/10/04 14:11:12;;;;;;;1.25;1.15;;;;;;;;;;5012407;28;20474;-62
2021/10/04 14:13:40;;;;;;;1.42;1.10;;;;;;;;;;5008243;28;20028;-65
2021/10/04 14:16:05;;;;;;;2.08;1.23;;;;;;;;;;5011107;28;20029;-64
2021/10/04 14:18:36;;;;;;;1.23;1.13;;;;;;;;;;4995788;28;20022;-64
2021/10/04 14:21:01;;;;;;;1.35;1.05;;;;;;;;;;5007221;28;20018;-64
2021/10/04 14:23:27;;;;;;;1.73;1.25;;;;;;;;;;5009810;28;20079;-62
2021/10/04 14:25:52;;;;;;;1.37;1.27;;;;;;;;;;5014570;28;20506;-63
2021/10/04 14:28:20;;;;;;;1.93;1.03;;;;;;;;;;5009659;28;20256;-63
2021/10/04 14:30:45;;;;;;;1.88;1.15;;;;;;;;;;5002191;28;20261;-63
2021/10/04 14:33:11;;;;;;;1.00;0.90;;;;;;;;;;4991651;28;20026;-61
2021/10/04 14:35:37;;;;;;;1.45;1.17;;;;;;;;;;4992435;28;20029;-63
2021/10/04 14:38:02;;;;;;;1.38;1.20;;;;;;;;;;4989446;28;20377;-64
2021/10/04 14:40:28;;;;;;;1.20;1.10;;;;;;;;;;5003545;28;20029;-62
2021/10/04 14:42:53;;;;;;;1.63;0.95;;;;;;;;;;4997038;28;20018;-59
2021/10/04 14:45:19;;;;;;;1.40;1.17;;;;;;;;;;5010793;28;20021;-63
2021/10/04 14:47:44;;;;;;;1.10;1.00;;;;;;;;;;4994501;28;20037;-62